createdAt,value
2023-05-09T00:00:43.521Z,15.33
2023-05-09T00:01:43.544Z,15.33
2023-05-09T00:02:43.618Z,15.33
2023-05-09T00:03:43.479Z,15.33
2023-05-09T00:04:42.547Z,15.30
2023-05-09T00:05:43.444Z,15.30
2023-05-09T00:06:43.420Z,15.27
2023-05-09T00:07:43.429Z,15.27
2023-05-09T00:08:43.401Z,15.26
2023-05-09T00:09:43.386Z,15.23
2023-05-09T00:10:43.383Z,15.21
2023-05-09T00:11:43.380Z,15.21
2023-05-09T00:12:43.380Z,15.23
2023-05-09T00:13:43.331Z,15.24
2023-05-09T00:14:43.323Z,15.24
2023-05-09T00:15:43.327Z,15.24
2023-05-09T00:16:43.314Z,15.23
2023-05-09T00:17:43.308Z,15.24
2023-05-09T00:18:43.270Z,15.24
2023-05-09T00:19:43.248Z,15.24
2023-05-09T00:20:43.258Z,15.24
2023-05-09T00:21:43.229Z,15.24
2023-05-09T00:22:43.213Z,15.26
2023-05-09T00:23:43.202Z,15.23
2023-05-09T00:24:43.177Z,15.24
2023-05-09T00:25:43.167Z,15.24
2023-05-09T00:26:43.179Z,15.23
2023-05-09T00:27:43.161Z,15.26
2023-05-09T00:28:43.119Z,15.28
2023-05-09T00:29:43.121Z,15.27
2023-05-09T00:30:43.105Z,15.27
2023-05-09T00:31:43.138Z,15.26
2023-05-09T00:32:43.133Z,15.24
2023-05-09T00:33:43.083Z,15.23
2023-05-09T00:34:43.047Z,15.23
2023-05-09T00:35:43.048Z,15.23
2023-05-09T00:36:43.017Z,15.26
2023-05-09T00:37:42.999Z,15.27
2023-05-09T00:38:42.986Z,15.26
2023-05-09T00:39:42.983Z,15.26
2023-05-09T00:40:42.980Z,15.28
2023-05-09T00:41:42.955Z,15.28
2023-05-09T00:42:42.935Z,15.21
2023-05-09T00:43:42.921Z,15.21
2023-05-09T00:44:42.911Z,15.24
2023-05-09T00:45:42.945Z,15.27
2023-05-09T00:46:42.903Z,15.28
2023-05-09T00:47:42.909Z,15.30
2023-05-09T00:48:42.866Z,15.30
2023-05-09T00:49:41.913Z,15.30
2023-05-09T00:50:42.821Z,15.30
2023-05-09T00:51:42.802Z,15.28
2023-05-09T00:52:42.790Z,15.28
2023-05-09T00:53:42.780Z,15.28
2023-05-09T00:54:42.788Z,15.26
2023-05-09T00:55:42.752Z,15.23
2023-05-09T00:56:42.738Z,15.23
2023-05-09T00:57:42.735Z,15.20
2023-05-09T00:58:42.705Z,15.15
2023-05-09T00:59:42.707Z,15.17
2023-05-09T01:00:42.685Z,15.13
2023-05-09T01:01:42.699Z,15.09
2023-05-09T01:02:42.754Z,15.05
2023-05-09T01:03:42.735Z,15.05
2023-05-09T01:04:42.658Z,15.05
2023-05-09T01:05:42.648Z,15.08
2023-05-09T01:06:42.614Z,15.08
2023-05-09T01:07:42.647Z,15.06
2023-05-09T01:08:42.599Z,15.09
2023-05-09T01:09:42.572Z,15.09
2023-05-09T01:10:42.545Z,15.11
2023-05-09T01:11:42.537Z,15.09
2023-05-09T01:12:42.553Z,15.06
2023-05-09T01:13:42.529Z,15.03
2023-05-09T01:14:41.076Z,15.08
2023-05-09T01:15:42.535Z,15.08
2023-05-09T01:16:42.483Z,15.09
2023-05-09T01:17:42.495Z,15.11
2023-05-09T01:18:42.468Z,15.11
2023-05-09T01:19:42.436Z,15.05
2023-05-09T01:20:42.431Z,15.06
2023-05-09T01:21:42.426Z,15.08
2023-05-09T01:22:42.407Z,15.06
2023-05-09T01:23:42.406Z,15.06
2023-05-09T01:24:42.353Z,15.05
2023-05-09T01:25:42.380Z,15.05
2023-05-09T01:26:42.346Z,15.06
2023-05-09T01:27:40.983Z,15.01
2023-05-09T01:28:42.325Z,15.05
2023-05-09T01:29:42.316Z,15.06
2023-05-09T01:30:42.287Z,15.06
2023-05-09T01:31:42.316Z,15.06
2023-05-09T01:32:42.322Z,15.08
2023-05-09T01:33:42.228Z,15.06
2023-05-09T01:34:42.224Z,15.08
2023-05-09T01:35:42.210Z,15.05
2023-05-09T01:36:42.206Z,15.05
2023-05-09T01:37:42.184Z,15.02
2023-05-09T01:38:42.169Z,15.08
2023-05-09T01:39:42.161Z,15.08
2023-05-09T01:40:42.151Z,15.02
2023-05-09T01:41:42.127Z,14.99
2023-05-09T01:42:42.124Z,15.03
2023-05-09T01:43:42.133Z,15.06
2023-05-09T01:44:42.098Z,15.08
2023-05-09T01:45:42.095Z,15.11
2023-05-09T01:46:42.076Z,15.13
2023-05-09T01:47:42.073Z,15.11
2023-05-09T01:48:42.050Z,15.12
2023-05-09T01:49:42.028Z,15.13
2023-05-09T01:50:42.016Z,15.15
2023-05-09T01:51:43.773Z,15.17
2023-05-09T01:52:41.976Z,15.19
2023-05-09T01:53:40.521Z,15.12
2023-05-09T01:54:41.983Z,15.12
2023-05-09T01:55:41.954Z,15.13
2023-05-09T01:56:41.915Z,15.15
2023-05-09T01:57:41.917Z,15.17
2023-05-09T01:58:41.920Z,15.12
2023-05-09T01:59:41.885Z,15.11
2023-05-09T02:00:41.932Z,15.12
2023-05-09T02:01:41.854Z,15.12
2023-05-09T02:02:41.999Z,15.12
2023-05-09T02:03:41.832Z,15.13
2023-05-09T02:04:41.842Z,15.15
2023-05-09T02:05:41.818Z,15.13
2023-05-09T02:06:41.784Z,15.13
2023-05-09T02:07:41.763Z,15.15
2023-05-09T02:08:41.776Z,15.13
2023-05-09T02:09:41.761Z,15.15
2023-05-09T02:10:41.722Z,15.15
2023-05-09T02:11:41.712Z,15.13
2023-05-09T02:12:41.754Z,15.13
2023-05-09T02:13:41.707Z,15.15
2023-05-09T02:14:41.684Z,15.17
2023-05-09T02:15:41.668Z,15.19
2023-05-09T02:16:41.697Z,15.15
2023-05-09T02:17:41.693Z,15.13
2023-05-09T02:18:41.642Z,15.09
2023-05-09T02:19:41.630Z,15.12
2023-05-09T02:20:41.591Z,15.13
2023-05-09T02:21:41.577Z,15.13
2023-05-09T02:22:41.579Z,15.12
2023-05-09T02:23:41.572Z,15.08
2023-05-09T02:24:41.535Z,15.06
2023-05-09T02:25:41.522Z,15.09
2023-05-09T02:26:41.509Z,15.12
2023-05-09T02:27:41.504Z,15.12
2023-05-09T02:28:41.487Z,15.15
2023-05-09T02:29:41.463Z,15.19
2023-05-09T02:30:41.457Z,15.19
2023-05-09T02:31:41.557Z,15.17
2023-05-09T02:32:41.484Z,15.17
2023-05-09T02:33:41.414Z,15.20
2023-05-09T02:34:41.406Z,15.15
2023-05-09T02:35:41.383Z,15.12
2023-05-09T02:36:41.384Z,15.02
2023-05-09T02:37:41.361Z,14.98
2023-05-09T02:38:41.346Z,15.01
2023-05-09T02:39:41.353Z,14.99
2023-05-09T02:40:41.311Z,14.95
2023-05-09T02:41:41.330Z,14.94
2023-05-09T02:42:41.293Z,14.99
2023-05-09T02:43:41.289Z,15.03
2023-05-09T02:44:41.248Z,15.02
2023-05-09T02:45:41.243Z,15.03
2023-05-09T02:46:41.244Z,14.95
2023-05-09T02:47:41.316Z,14.90
2023-05-09T02:48:41.211Z,14.90
2023-05-09T02:49:41.211Z,14.87
2023-05-09T02:50:40.713Z,14.81
2023-05-09T02:51:41.187Z,14.83
2023-05-09T02:52:41.159Z,14.78
2023-05-09T02:53:41.140Z,14.78
2023-05-09T02:54:41.136Z,14.72
2023-05-09T02:55:41.125Z,14.71
2023-05-09T02:56:41.107Z,14.68
2023-05-09T02:57:41.067Z,14.68
2023-05-09T02:58:41.066Z,14.67
2023-05-09T02:59:41.049Z,14.65
2023-05-09T03:00:41.043Z,14.64
2023-05-09T03:01:41.030Z,14.64
2023-05-09T03:02:41.103Z,14.61
2023-05-09T03:03:41.024Z,14.62
2023-05-09T03:04:41.021Z,14.57
2023-05-09T03:05:40.990Z,14.57
2023-05-09T03:06:39.981Z,14.53
2023-05-09T03:07:40.960Z,14.50
2023-05-09T03:08:40.913Z,14.49
2023-05-09T03:09:41.428Z,14.47
2023-05-09T03:10:40.924Z,14.42
2023-05-09T03:11:40.904Z,14.42
2023-05-09T03:12:40.921Z,14.44
2023-05-09T03:13:40.869Z,14.44
2023-05-09T03:14:40.860Z,14.44
2023-05-09T03:15:40.866Z,14.47
2023-05-09T03:16:40.818Z,14.49
2023-05-09T03:17:39.359Z,14.50
2023-05-09T03:18:40.799Z,14.50
2023-05-09T03:19:40.800Z,14.52
2023-05-09T03:20:40.766Z,14.54
2023-05-09T03:21:40.750Z,14.60
2023-05-09T03:22:39.684Z,14.62
2023-05-09T03:23:40.723Z,14.67
2023-05-09T03:24:40.751Z,14.68
2023-05-09T03:25:40.738Z,14.67
2023-05-09T03:26:40.711Z,14.68
2023-05-09T03:27:40.668Z,14.69
2023-05-09T03:28:40.668Z,14.71
2023-05-09T03:29:40.668Z,14.69
2023-05-09T03:30:40.636Z,14.69
2023-05-09T03:31:40.648Z,14.71
2023-05-09T03:32:40.620Z,14.71
2023-05-09T03:33:40.596Z,14.69
2023-05-09T03:34:40.602Z,14.72
2023-05-09T03:35:40.567Z,14.74
2023-05-09T03:36:40.577Z,14.75
2023-05-09T03:37:40.546Z,14.74
2023-05-09T03:38:40.547Z,14.75
2023-05-09T03:39:40.518Z,14.75
2023-05-09T03:40:40.507Z,14.74
2023-05-09T03:41:40.483Z,14.74
2023-05-09T03:42:40.469Z,14.72
2023-05-09T03:43:40.473Z,14.72
2023-05-09T03:44:40.451Z,14.74
2023-05-09T03:45:40.426Z,14.74
2023-05-09T03:46:39.083Z,14.72
2023-05-09T03:47:40.435Z,14.74
2023-05-09T03:48:40.404Z,14.74
2023-05-09T03:49:39.872Z,14.78
2023-05-09T03:50:40.373Z,14.75
2023-05-09T03:51:42.010Z,14.75
2023-05-09T03:52:40.328Z,14.75
2023-05-09T03:53:40.309Z,14.75
2023-05-09T03:54:40.318Z,14.75
2023-05-09T03:55:40.295Z,14.72
2023-05-09T03:56:38.820Z,14.72
2023-05-09T03:57:40.266Z,14.71
2023-05-09T03:58:40.250Z,14.69
2023-05-09T03:59:40.250Z,14.69
2023-05-09T04:00:40.230Z,14.67
2023-05-09T04:01:40.412Z,14.65
2023-05-09T04:02:40.253Z,14.64
2023-05-09T04:03:40.249Z,14.65
2023-05-09T04:04:40.167Z,14.65
2023-05-09T04:05:40.910Z,14.67
2023-05-09T04:06:40.149Z,14.67
2023-05-09T04:07:40.129Z,14.67
2023-05-09T04:08:40.114Z,14.67
2023-05-09T04:09:40.097Z,14.67
2023-05-09T04:10:38.795Z,14.65
2023-05-09T04:11:40.069Z,14.64
2023-05-09T04:12:40.115Z,14.67
2023-05-09T04:13:40.055Z,14.65
2023-05-09T04:14:40.053Z,14.67
2023-05-09T04:15:40.021Z,14.67
2023-05-09T04:16:40.063Z,14.68
2023-05-09T04:17:38.583Z,14.68
2023-05-09T04:18:40.014Z,14.69
2023-05-09T04:19:39.972Z,14.71
2023-05-09T04:20:39.937Z,14.72
2023-05-09T04:21:39.934Z,14.74
2023-05-09T04:22:39.903Z,14.75
2023-05-09T04:23:39.904Z,14.78
2023-05-09T04:24:39.893Z,14.78
2023-05-09T04:25:39.864Z,14.81
2023-05-09T04:26:39.868Z,14.81
2023-05-09T04:27:39.871Z,14.84
2023-05-09T04:28:39.876Z,14.84
2023-05-09T04:29:39.830Z,14.86
2023-05-09T04:30:39.826Z,14.86
2023-05-09T04:31:39.845Z,14.87
2023-05-09T04:32:39.831Z,14.88
2023-05-09T04:33:39.813Z,14.91
2023-05-09T04:34:39.750Z,14.91
2023-05-09T04:35:38.351Z,14.93
2023-05-09T04:36:39.724Z,14.93
2023-05-09T04:37:39.756Z,14.94
2023-05-09T04:38:39.722Z,14.95
2023-05-09T04:39:39.719Z,14.95
2023-05-09T04:40:39.911Z,14.98
2023-05-09T04:41:39.660Z,14.99
2023-05-09T04:42:39.669Z,14.99
2023-05-09T04:43:39.620Z,14.99
2023-05-09T04:44:39.612Z,14.99
2023-05-09T04:45:39.592Z,15.01
2023-05-09T04:46:39.696Z,15.02
2023-05-09T04:47:39.595Z,15.03
2023-05-09T04:48:39.558Z,15.06
2023-05-09T04:49:39.542Z,15.06
2023-05-09T04:50:39.552Z,15.08
2023-05-09T04:51:39.526Z,15.08
2023-05-09T04:52:39.515Z,15.06
2023-05-09T04:53:39.498Z,15.05
2023-05-09T04:54:39.500Z,15.05
2023-05-09T04:55:39.460Z,14.99
2023-05-09T04:56:39.457Z,14.98
2023-05-09T04:57:39.441Z,15.01
2023-05-09T04:58:39.423Z,14.99
2023-05-09T04:59:39.403Z,14.98
2023-05-09T05:00:39.406Z,14.95
2023-05-09T05:01:39.415Z,14.99
2023-05-09T05:02:39.398Z,15.02
2023-05-09T05:03:39.354Z,15.03
2023-05-09T05:04:39.398Z,15.03
2023-05-09T05:05:39.464Z,15.05
2023-05-09T05:06:39.314Z,15.09
2023-05-09T05:07:39.300Z,15.12
2023-05-09T05:08:39.271Z,15.17
2023-05-09T05:09:39.292Z,15.20
2023-05-09T05:10:39.270Z,15.21
2023-05-09T05:12:39.314Z,15.20
2023-05-09T05:13:39.209Z,15.12
2023-05-09T05:14:39.204Z,15.09
2023-05-09T05:15:39.199Z,15.11
2023-05-09T05:16:39.249Z,15.15
2023-05-09T05:17:38.248Z,15.17
2023-05-09T05:18:39.158Z,15.23
2023-05-09T05:19:39.137Z,15.26
2023-05-09T05:20:39.135Z,15.33
2023-05-09T05:21:39.116Z,15.38
2023-05-09T05:22:39.115Z,15.45
2023-05-09T05:23:39.093Z,15.52
2023-05-09T05:24:39.098Z,15.56
2023-05-09T05:25:39.065Z,15.59
2023-05-09T05:26:39.060Z,15.63
2023-05-09T05:27:39.020Z,15.59
2023-05-09T05:28:39.010Z,15.67
2023-05-09T05:29:39.033Z,15.74
2023-05-09T05:30:38.977Z,15.75
2023-05-09T05:31:39.143Z,15.78
2023-05-09T05:32:38.984Z,15.76
2023-05-09T05:33:38.938Z,15.81
2023-05-09T05:34:38.940Z,15.81
2023-05-09T05:35:38.912Z,15.88
2023-05-09T05:36:38.895Z,15.86
2023-05-09T05:37:38.917Z,15.88
2023-05-09T05:38:39.172Z,15.78
2023-05-09T05:39:38.882Z,15.67
2023-05-09T05:40:38.861Z,15.64
2023-05-09T05:41:38.822Z,15.57
2023-05-09T05:42:38.841Z,15.63
2023-05-09T05:43:37.394Z,15.67
2023-05-09T05:44:38.818Z,15.68
2023-05-09T05:45:38.848Z,15.66
2023-05-09T05:46:38.771Z,15.67
2023-05-09T05:47:38.758Z,15.81
2023-05-09T05:48:38.733Z,15.84
2023-05-09T05:49:38.731Z,15.79
2023-05-09T05:50:38.712Z,15.63
2023-05-09T05:51:38.753Z,15.66
2023-05-09T05:52:38.675Z,15.66
2023-05-09T05:53:38.677Z,15.76
2023-05-09T05:54:38.657Z,15.82
2023-05-09T05:55:38.634Z,15.88
2023-05-09T05:56:38.622Z,15.84
2023-05-09T05:57:38.600Z,15.78
2023-05-09T05:58:38.600Z,15.86
2023-05-09T05:59:38.580Z,15.86
2023-05-09T06:00:38.620Z,15.89
2023-05-09T06:01:38.620Z,15.96
2023-05-09T06:02:38.741Z,15.96
2023-05-09T06:03:38.099Z,16.06
2023-05-09T06:04:38.505Z,16.16
2023-05-09T06:05:38.508Z,16.14
2023-05-09T06:06:38.473Z,16.22
2023-05-09T06:07:38.475Z,16.33
2023-05-09T06:08:38.476Z,16.40
2023-05-09T06:09:38.438Z,16.15
2023-05-09T06:10:38.419Z,16.38
2023-05-09T06:11:38.403Z,16.50
2023-05-09T06:12:38.418Z,16.62
2023-05-09T06:13:38.384Z,16.70
2023-05-09T06:14:38.365Z,16.86
2023-05-09T06:15:38.358Z,16.86
2023-05-09T06:16:38.357Z,16.71
2023-05-09T06:17:38.423Z,16.81
2023-05-09T06:18:38.313Z,16.99
2023-05-09T06:19:38.300Z,17.15
2023-05-09T06:20:38.284Z,17.29
2023-05-09T06:21:38.294Z,17.40
2023-05-09T06:22:38.300Z,17.40
2023-05-09T06:23:44.674Z,17.44
2023-05-09T06:24:39.233Z,17.36
2023-05-09T06:25:38.230Z,17.48
2023-05-09T06:26:38.231Z,17.54
2023-05-09T06:27:38.197Z,17.81
2023-05-09T06:28:38.176Z,18.06
2023-05-09T06:29:38.163Z,18.34
2023-05-09T06:30:38.150Z,18.70
2023-05-09T06:31:38.210Z,19.25
2023-05-09T06:32:38.148Z,19.46
2023-05-09T06:33:36.676Z,19.39
2023-05-09T06:34:36.658Z,19.70
2023-05-09T06:35:38.107Z,19.61
2023-05-09T06:36:38.102Z,18.90
2023-05-09T06:37:38.053Z,19.02
2023-05-09T06:38:38.047Z,18.92
2023-05-09T06:39:38.022Z,18.40
2023-05-09T06:40:38.012Z,18.36
2023-05-09T06:41:38.022Z,18.29
2023-05-09T06:42:37.990Z,18.39
2023-05-09T06:43:37.973Z,18.12
2023-05-09T06:44:37.511Z,18.10
2023-05-09T06:45:38.009Z,18.25
2023-05-09T06:46:38.134Z,18.06
2023-05-09T06:47:37.929Z,18.13
2023-05-09T06:48:37.902Z,18.25
2023-05-09T06:49:37.896Z,18.36
2023-05-09T06:50:37.898Z,18.15
2023-05-09T06:51:36.436Z,17.76
2023-05-09T06:52:37.846Z,17.59
2023-05-09T06:53:37.833Z,17.78
2023-05-09T06:54:37.825Z,17.92
2023-05-09T06:55:37.811Z,17.85
2023-05-09T06:56:36.858Z,17.99
2023-05-09T06:57:37.786Z,18.24
2023-05-09T06:58:37.775Z,18.17
2023-05-09T06:59:37.762Z,17.92
2023-05-09T07:00:37.746Z,17.84
2023-05-09T07:01:37.772Z,17.85
2023-05-09T07:02:37.807Z,17.89
2023-05-09T07:03:37.707Z,17.82
2023-05-09T07:04:37.761Z,17.81
2023-05-09T07:05:37.185Z,17.73
2023-05-09T07:06:37.674Z,17.70
2023-05-09T07:07:37.660Z,17.63
2023-05-09T07:08:37.648Z,17.48
2023-05-09T07:09:37.661Z,17.50
2023-05-09T07:10:37.616Z,17.67
2023-05-09T07:11:37.594Z,17.55
2023-05-09T07:12:37.585Z,17.41
2023-05-09T07:13:37.575Z,17.47
2023-05-09T07:14:37.561Z,17.43
2023-05-09T07:15:41.801Z,17.71
2023-05-09T07:16:38.612Z,18.24
2023-05-09T07:17:37.570Z,18.73
2023-05-09T07:18:37.506Z,18.67
2023-05-09T07:19:37.488Z,18.84
2023-05-09T07:20:37.476Z,19.20
2023-05-09T07:21:37.468Z,19.18
2023-05-09T07:22:37.890Z,19.05
2023-05-09T07:23:37.453Z,18.84
2023-05-09T07:24:37.454Z,18.27
2023-05-09T07:25:37.410Z,17.95
2023-05-09T07:26:37.377Z,17.88
2023-05-09T07:27:37.374Z,18.00
2023-05-09T07:28:37.389Z,18.24
2023-05-09T07:29:37.358Z,18.17
2023-05-09T07:30:37.330Z,18.03
2023-05-09T07:31:37.574Z,18.02
2023-05-09T07:32:37.341Z,18.22
2023-05-09T07:33:37.296Z,18.21
2023-05-09T07:34:36.336Z,18.34
2023-05-09T07:35:37.286Z,18.49
2023-05-09T07:37:37.241Z,18.62
2023-05-09T07:38:37.234Z,18.52
2023-05-09T07:39:36.331Z,18.72
2023-05-09T07:40:37.192Z,18.86
2023-05-09T07:41:37.206Z,18.83
2023-05-09T07:42:37.225Z,18.95
2023-05-09T07:43:37.171Z,18.87
2023-05-09T07:44:37.156Z,18.61
2023-05-09T07:45:37.152Z,18.95
2023-05-09T07:46:37.109Z,19.21
2023-05-09T07:47:37.148Z,19.23
2023-05-09T07:48:37.262Z,19.01
2023-05-09T07:49:37.058Z,19.14
2023-05-09T07:50:37.043Z,19.53
2023-05-09T07:51:37.034Z,19.14
2023-05-09T07:52:37.033Z,18.94
2023-05-09T07:53:37.023Z,19.05
2023-05-09T07:54:36.998Z,19.33
2023-05-09T07:55:36.981Z,19.58
2023-05-09T07:56:36.989Z,19.61
2023-05-09T07:57:36.981Z,19.69
2023-05-09T07:58:36.957Z,19.60
2023-05-09T07:59:36.937Z,19.57
2023-05-09T08:00:36.914Z,19.51
2023-05-09T08:01:36.913Z,19.54
2023-05-09T08:02:36.952Z,19.36
2023-05-09T08:03:36.916Z,19.06
2023-05-09T08:04:36.935Z,19.10
2023-05-09T08:05:36.878Z,19.38
2023-05-09T08:06:36.853Z,19.51
2023-05-09T08:07:36.822Z,19.65
2023-05-09T08:08:38.333Z,19.55
2023-05-09T08:09:36.785Z,19.20
2023-05-09T08:10:36.851Z,19.18
2023-05-09T08:11:36.775Z,19.02
2023-05-09T08:12:36.762Z,19.14
2023-05-09T08:13:36.736Z,19.17
2023-05-09T08:14:36.713Z,18.90
2023-05-09T08:15:36.729Z,18.67
2023-05-09T08:16:36.851Z,18.94
2023-05-09T08:17:36.697Z,18.80
2023-05-09T08:18:36.709Z,18.52
2023-05-09T08:19:36.643Z,18.74
2023-05-09T08:20:36.641Z,18.80
2023-05-09T08:21:36.624Z,18.77
2023-05-09T08:22:36.622Z,18.64
2023-05-09T08:23:36.618Z,18.91
2023-05-09T08:24:36.596Z,19.15
2023-05-09T08:25:36.585Z,19.14
2023-05-09T08:26:36.566Z,19.20
2023-05-09T08:27:36.554Z,19.42
2023-05-09T08:28:36.540Z,19.39
2023-05-09T08:29:36.530Z,19.48
2023-05-09T08:30:35.166Z,19.75
2023-05-09T08:31:36.551Z,20.05
2023-05-09T08:32:36.503Z,20.12
2023-05-09T08:33:36.461Z,19.95
2023-05-09T08:34:36.490Z,19.95
2023-05-09T08:35:36.436Z,19.83
2023-05-09T08:36:36.441Z,20.05
2023-05-09T08:37:36.410Z,20.00
2023-05-09T08:38:36.410Z,19.69
2023-05-09T08:39:36.394Z,19.69
2023-05-09T08:40:36.369Z,19.61
2023-05-09T08:41:36.353Z,19.87
2023-05-09T08:42:36.376Z,19.98
2023-05-09T08:43:36.351Z,20.10
2023-05-09T08:44:36.350Z,19.78
2023-05-09T08:45:36.310Z,19.95
2023-05-09T08:46:36.406Z,19.86
2023-05-09T08:47:36.289Z,19.75
2023-05-09T08:48:36.282Z,19.57
2023-05-09T08:49:36.287Z,19.84
2023-05-09T08:50:36.244Z,19.97
2023-05-09T08:51:36.225Z,20.10
2023-05-09T08:52:35.029Z,20.53
2023-05-09T08:53:36.207Z,20.86
2023-05-09T08:54:36.173Z,21.13
2023-05-09T08:55:36.176Z,21.36
2023-05-09T08:56:36.146Z,21.51
2023-05-09T08:57:36.149Z,21.60
2023-05-09T08:58:36.128Z,21.56
2023-05-09T08:59:36.108Z,21.99
2023-05-09T09:00:36.106Z,21.74
2023-05-09T09:01:36.192Z,21.67
2023-05-09T09:02:36.150Z,22.02
2023-05-09T09:03:36.046Z,21.79
2023-05-09T09:04:36.097Z,22.17
2023-05-09T09:05:41.943Z,22.44
2023-05-09T09:06:37.024Z,22.57
2023-05-09T09:07:36.036Z,22.49
2023-05-09T09:08:35.999Z,22.06
2023-05-09T09:09:35.036Z,22.39
2023-05-09T09:10:35.977Z,22.29
2023-05-09T09:11:35.949Z,22.23
2023-05-09T09:12:35.956Z,22.56
2023-05-09T09:13:35.936Z,22.52
2023-05-09T09:14:35.913Z,22.46
2023-05-09T09:15:35.918Z,22.09
2023-05-09T09:16:35.927Z,22.02
2023-05-09T09:17:35.920Z,21.94
2023-05-09T09:18:35.843Z,21.60
2023-05-09T09:19:35.841Z,21.38
2023-05-09T09:20:35.881Z,21.36
2023-05-09T09:21:35.826Z,22.04
2023-05-09T09:22:35.813Z,22.20
2023-05-09T09:23:35.823Z,23.15
2023-05-09T09:24:35.768Z,24.08
2023-05-09T09:25:35.776Z,23.49
2023-05-09T09:26:35.758Z,23.39
2023-05-09T09:27:35.723Z,23.38
2023-05-09T09:28:35.749Z,23.40
2023-05-09T09:29:35.732Z,23.40
2023-05-09T09:30:35.704Z,23.46
2023-05-09T09:31:35.758Z,23.90
2023-05-09T09:32:35.750Z,24.16
2023-05-09T09:33:35.647Z,23.95
2023-05-09T09:34:35.636Z,23.58
2023-05-09T09:35:35.651Z,23.47
2023-05-09T09:36:35.613Z,23.43
2023-05-09T09:37:34.332Z,23.35
2023-05-09T09:38:35.591Z,23.17
2023-05-09T09:39:35.688Z,22.97
2023-05-09T09:40:35.636Z,23.09
2023-05-09T09:41:35.566Z,22.97
2023-05-09T09:42:35.537Z,22.41
2023-05-09T09:43:35.515Z,23.05
2023-05-09T09:44:35.521Z,23.52
2023-05-09T09:45:35.556Z,24.16
2023-05-09T09:46:35.531Z,24.35
2023-05-09T09:47:35.489Z,23.29
2023-05-09T09:48:35.519Z,22.87
2023-05-09T09:49:35.443Z,23.27
2023-05-09T09:50:35.434Z,23.77
2023-05-09T09:51:35.403Z,23.60
2023-05-09T09:52:35.394Z,23.42
2023-05-09T09:53:35.384Z,23.71
2023-05-09T09:54:35.365Z,23.26
2023-05-09T09:55:35.386Z,23.12
2023-05-09T09:56:35.351Z,23.11
2023-05-09T09:57:35.332Z,23.11
2023-05-09T09:58:35.313Z,22.87
2023-05-09T09:59:35.335Z,22.43
2023-05-09T10:00:33.892Z,22.67
2023-05-09T10:01:35.352Z,23.09
2023-05-09T10:02:35.271Z,22.93
2023-05-09T10:03:35.314Z,22.92
2023-05-09T10:04:35.268Z,22.94
2023-05-09T10:05:34.748Z,23.04
2023-05-09T10:06:35.203Z,22.96
2023-05-09T10:07:34.322Z,22.84
2023-05-09T10:08:35.171Z,22.44
2023-05-09T10:09:35.228Z,21.88
2023-05-09T10:10:34.357Z,21.91
2023-05-09T10:11:35.162Z,22.38
2023-05-09T10:12:35.118Z,22.60
2023-05-09T10:13:35.100Z,22.67
2023-05-09T10:14:35.286Z,22.60
2023-05-09T10:15:49.485Z,22.54
2023-05-09T10:16:43.056Z,22.44
2023-05-09T10:17:36.172Z,22.32
2023-05-09T10:18:35.169Z,22.43
2023-05-09T10:19:35.040Z,22.86
2023-05-09T10:20:35.010Z,22.99
2023-05-09T10:21:36.187Z,22.96
2023-05-09T10:22:34.990Z,22.80
2023-05-09T10:23:34.988Z,22.31
2023-05-09T10:24:34.976Z,22.34
2023-05-09T10:25:34.962Z,22.57
2023-05-09T10:26:33.478Z,22.57
2023-05-09T10:27:34.962Z,22.34
2023-05-09T10:28:34.920Z,22.67
2023-05-09T10:29:34.946Z,22.93
2023-05-09T10:30:34.874Z,23.23
2023-05-09T10:31:33.501Z,23.76
2023-05-09T10:32:34.901Z,24.14
2023-05-09T10:33:34.857Z,24.07
2023-05-09T10:34:33.388Z,24.04
2023-05-09T10:35:34.830Z,23.85
2023-05-09T10:36:34.812Z,23.89
2023-05-09T10:37:34.791Z,23.40
2023-05-09T10:38:34.821Z,23.15
2023-05-09T10:39:34.762Z,23.27
2023-05-09T10:40:34.743Z,22.69
2023-05-09T10:41:34.745Z,22.37
2023-05-09T10:42:34.716Z,22.27
2023-05-09T10:43:36.684Z,22.32
2023-05-09T10:44:34.742Z,22.75
2023-05-09T10:45:35.477Z,23.38
2023-05-09T10:46:34.720Z,23.58
2023-05-09T10:47:34.682Z,23.45
2023-05-09T10:48:34.663Z,23.05
2023-05-09T10:49:36.967Z,22.69
2023-05-09T10:50:34.606Z,22.93
2023-05-09T10:51:34.611Z,23.20
2023-05-09T10:52:34.615Z,23.49
2023-05-09T10:53:34.580Z,23.86
2023-05-09T10:54:34.556Z,23.09
2023-05-09T10:55:34.542Z,22.82
2023-05-09T10:56:34.528Z,22.74
2023-05-09T10:57:34.540Z,22.86
2023-05-09T10:58:34.489Z,23.01
2023-05-09T10:59:34.489Z,22.86
2023-05-09T11:00:34.470Z,23.31
2023-05-09T11:01:34.568Z,23.23
2023-05-09T11:02:34.469Z,23.22
2023-05-09T11:03:34.483Z,23.11
2023-05-09T11:04:34.426Z,23.12
2023-05-09T11:05:34.411Z,23.24
2023-05-09T11:06:34.418Z,23.85
2023-05-09T11:07:34.689Z,23.64
2023-05-09T11:08:34.441Z,23.58
2023-05-09T11:09:35.189Z,23.29
2023-05-09T11:10:34.381Z,23.26
2023-05-09T11:11:35.129Z,22.53
2023-05-09T11:12:33.192Z,22.68
2023-05-09T11:13:34.402Z,22.69
2023-05-09T11:14:34.328Z,22.78
2023-05-09T11:15:34.284Z,22.90
2023-05-09T11:16:34.304Z,23.17
2023-05-09T11:17:34.262Z,23.12
2023-05-09T11:18:34.231Z,23.55
2023-05-09T11:19:34.229Z,23.97
2023-05-09T11:20:34.213Z,24.27
2023-05-09T11:21:34.231Z,23.90
2023-05-09T11:22:32.971Z,24.01
2023-05-09T11:23:34.170Z,24.76
2023-05-09T11:24:34.160Z,24.52
2023-05-09T11:25:34.136Z,24.91
2023-05-09T11:26:34.146Z,24.75
2023-05-09T11:27:34.129Z,24.60
2023-05-09T11:28:34.104Z,24.56
2023-05-09T11:29:34.094Z,24.63
2023-05-09T11:30:34.080Z,24.05
2023-05-09T11:31:34.178Z,24.49
2023-05-09T11:32:33.141Z,24.57
2023-05-09T11:33:33.098Z,24.23
2023-05-09T11:34:34.036Z,24.76
2023-05-09T11:35:34.011Z,24.88
2023-05-09T11:36:34.150Z,24.82
2023-05-09T11:37:33.984Z,24.52
2023-05-09T11:38:33.956Z,23.89
2023-05-09T11:39:33.968Z,24.31
2023-05-09T11:40:33.961Z,24.50
2023-05-09T11:41:33.939Z,24.83
2023-05-09T11:42:33.919Z,24.37
2023-05-09T11:43:33.904Z,24.26
2023-05-09T11:44:33.901Z,24.56
2023-05-09T11:45:33.931Z,25.01
2023-05-09T11:46:34.037Z,24.88
2023-05-09T11:47:33.860Z,25.13
2023-05-09T11:48:33.858Z,25.15
2023-05-09T11:49:33.821Z,25.15
2023-05-09T11:50:33.820Z,25.39
2023-05-09T11:51:33.797Z,25.49
2023-05-09T11:52:33.791Z,24.77
2023-05-09T11:53:33.784Z,24.71
2023-05-09T11:54:33.766Z,24.88
2023-05-09T11:55:33.760Z,24.71
2023-05-09T11:56:33.737Z,24.35
2023-05-09T11:57:33.722Z,24.19
2023-05-09T11:58:33.711Z,24.38
2023-05-09T11:59:33.698Z,24.47
2023-05-09T12:00:33.682Z,24.80
2023-05-09T12:01:33.655Z,24.56
2023-05-09T12:02:33.731Z,25.02
2023-05-09T12:03:33.727Z,25.35
2023-05-09T12:04:33.689Z,25.05
2023-05-09T12:05:33.619Z,24.68
2023-05-09T12:06:33.604Z,24.37
2023-05-09T12:07:33.586Z,24.45
2023-05-09T12:08:33.591Z,24.61
2023-05-09T12:09:33.590Z,24.98
2023-05-09T12:10:33.543Z,24.97
2023-05-09T12:11:33.527Z,25.43
2023-05-09T12:12:33.521Z,25.10
2023-05-09T12:13:33.526Z,25.46
2023-05-09T12:14:33.505Z,25.53
2023-05-09T12:15:33.474Z,25.31
2023-05-09T12:16:33.503Z,24.90
2023-05-09T12:17:33.480Z,24.12
2023-05-09T12:18:33.446Z,24.08
2023-05-09T12:19:33.487Z,23.70
2023-05-09T12:20:33.424Z,23.64
2023-05-09T12:21:32.894Z,23.94
2023-05-09T12:22:32.414Z,24.67
2023-05-09T12:23:32.419Z,25.15
2023-05-09T12:24:33.351Z,25.56
2023-05-09T12:25:33.338Z,25.34
2023-05-09T12:26:33.323Z,25.37
2023-05-09T12:27:33.312Z,25.61
2023-05-09T12:28:33.298Z,25.75
2023-05-09T12:29:33.283Z,25.72
2023-05-09T12:30:33.298Z,25.31
2023-05-09T12:31:33.320Z,25.19
2023-05-09T12:32:33.264Z,25.59
2023-05-09T12:33:33.252Z,25.94
2023-05-09T12:34:32.422Z,25.49
2023-05-09T12:35:33.202Z,25.27
2023-05-09T12:36:33.202Z,25.39
2023-05-09T12:37:33.186Z,25.39
2023-05-09T12:38:33.195Z,25.61
2023-05-09T12:39:33.154Z,25.16
2023-05-09T12:40:33.169Z,24.97
2023-05-09T12:41:39.282Z,24.92
2023-05-09T12:42:33.161Z,24.88
2023-05-09T12:43:32.009Z,24.13
2023-05-09T12:44:33.098Z,23.46
2023-05-09T12:45:33.075Z,23.64
2023-05-09T12:46:33.519Z,23.57
2023-05-09T12:47:32.159Z,23.72
2023-05-09T12:48:33.040Z,23.80
2023-05-09T12:49:33.045Z,23.76
2023-05-09T12:50:33.013Z,23.42
2023-05-09T12:51:32.988Z,23.05
2023-05-09T12:52:32.984Z,23.23
2023-05-09T12:53:33.008Z,23.29
2023-05-09T12:54:32.959Z,23.29